»·PEaware :: N1128 KSAN-KSMX

N1128 :: KSAN-KSMX

FLIGHT INFORMATION

Flight Status: Arrived
Operator: Privately registered:
United States
More flights under this callsign
Pilot: Siddique N. (20419)
Aircraft: Unknown
(BT7)
More flights by this aircraft type
Origin: KSAN San Diego Intl-Lindbergh
United States
Destination: KSMX Santa Maria Pub/Capt Hancock
United States
More flights between these airports :: More routes between these airports
Route: PADRZ2 IKAYE RZS
File this flight plan on PilotEdge
Remarks:
Altitude:
(Current/Filed)
30,000ft
Speed:
(Current/Filed)
300kts
Departed: 08-Sep-20 10:00 AM
Arrived: 08-Sep-20 11:06 AM
Distance/Time
Traveled:
208nm/1:06
Distance/Time
To Go:
Arrived

Flight Plot

Page will automatically refresh every two minutes.

Flight plan parsing failed; only flown route is shown


Map Options




Map Legend


Flown Route
Filed Route
Departure Airport
Arrival Airport
Navaid (VOR, NDB)
Fix

Horizontal Profiles

Position Reports

Time Latitude Longitude Heading Altitude Ground
Speed
08-Sep-20 09:20 32.732062 -117.193350 285 19ft 0kts
08-Sep-20 09:21 32.732062 -117.193350 285 19ft 0kts
08-Sep-20 09:22 32.732062 -117.193350 285 19ft 0kts
08-Sep-20 09:23 32.732062 -117.193350 285 19ft 0kts
08-Sep-20 09:24 32.732062 -117.193350 285 19ft 0kts
08-Sep-20 09:25 32.732062 -117.193350 285 19ft 0kts
08-Sep-20 09:26 32.732062 -117.193350 285 19ft 0kts
08-Sep-20 09:27 32.732062 -117.193350 285 19ft 0kts
08-Sep-20 09:28 32.732062 -117.193350 285 19ft 0kts
08-Sep-20 09:29 32.732062 -117.193350 285 19ft 0kts
08-Sep-20 09:30 32.732062 -117.193350 285 19ft 0kts
08-Sep-20 09:31 32.732062 -117.193350 285 19ft 0kts
08-Sep-20 09:32 32.732062 -117.193350 285 19ft 0kts
08-Sep-20 09:33 32.732062 -117.193350 285 19ft 0kts
08-Sep-20 09:34 32.732062 -117.193350 285 19ft 0kts
08-Sep-20 09:35 32.732062 -117.193350 285 19ft 0kts
08-Sep-20 09:36 32.732062 -117.193350 285 19ft 0kts
08-Sep-20 09:37 32.732062 -117.193350 285 19ft 0kts
08-Sep-20 09:38 32.732062 -117.193350 285 19ft 0kts
08-Sep-20 09:39 32.732062 -117.193350 285 19ft 0kts
08-Sep-20 09:40 32.732062 -117.193350 285 19ft 0kts
08-Sep-20 09:41 32.732062 -117.193350 285 19ft 0kts
08-Sep-20 09:42 32.732062 -117.193350 285 19ft 0kts
08-Sep-20 09:43 32.732062 -117.193350 285 19ft 0kts
08-Sep-20 09:44 32.732062 -117.193350 285 19ft 0kts
08-Sep-20 09:45 32.732062 -117.193350 285 19ft 0kts
08-Sep-20 09:46 32.732062 -117.193350 285 19ft 0kts
08-Sep-20 09:47 32.732062 -117.193350 285 19ft 0kts
08-Sep-20 09:48 32.732062 -117.193350 285 19ft 0kts
08-Sep-20 09:49 32.732062 -117.193350 285 19ft 0kts
08-Sep-20 09:50 32.732062 -117.193350 285 19ft 0kts
08-Sep-20 09:51 32.732062 -117.193350 285 19ft 0kts
08-Sep-20 09:52 32.732062 -117.193350 285 19ft 0kts
08-Sep-20 09:53 32.732063 -117.193351 285 19ft 0kts
08-Sep-20 09:54 32.732453 -117.189327 106 20ft 32kts
08-Sep-20 09:55 32.730112 -117.179759 105 17ft 30kts
08-Sep-20 09:56 32.729606 -117.177307 84 19ft 0kts
08-Sep-20 09:57 32.729652 -117.176939 74 19ft 12kts
08-Sep-20 09:58 32.730254 -117.176055 287 21ft 10kts
08-Sep-20 09:59 32.743046 -117.230931 287 1412ft 207kts
08-Sep-20 10:00 32.774492 -117.290273 301 2955ft 228kts
08-Sep-20 10:01 32.812793 -117.350560 307 4231ft 216kts
08-Sep-20 10:02 32.851978 -117.408033 307 6129ft 227kts
08-Sep-20 10:03 32.893807 -117.468598 307 8655ft 241kts
08-Sep-20 10:04 32.941915 -117.538329 307 10685ft 292kts
08-Sep-20 10:05 32.997460 -117.617302 308 12752ft 309kts
08-Sep-20 10:06 33.049724 -117.690506 307 15068ft 261kts
08-Sep-20 10:07 33.103062 -117.752508 317 18131ft 280kts
08-Sep-20 10:08 33.168089 -117.816011 314 21218ft 319kts
08-Sep-20 10:09 33.240857 -117.891866 314 22919ft 382kts
08-Sep-20 10:10 33.322621 -117.984304 312 22920ft 427kts
08-Sep-20 10:11 33.409547 -118.083292 312 24601ft 414kts
08-Sep-20 10:12 33.488405 -118.169279 312 28518ft 354kts
08-Sep-20 10:13 33.561209 -118.244703 309 29972ft 358kts
08-Sep-20 10:14 33.636574 -118.339461 307 29956ft 432kts
08-Sep-20 10:15 33.720677 -118.448021 308 29934ft 433kts
08-Sep-20 10:16 33.801743 -118.551585 308 29933ft 410kts
08-Sep-20 10:18 33.878573 -118.648406 308 29935ft 392kts
08-Sep-20 10:19 33.951261 -118.738759 307 29937ft 359kts
08-Sep-20 10:20 34.017937 -118.819429 307 29939ft 321kts
08-Sep-20 10:21 34.079906 -118.898569 305 29956ft 336kts
08-Sep-20 10:22 34.144065 -118.997345 300 29954ft 417kts
08-Sep-20 10:23 34.208200 -119.115274 297 29922ft 391kts
08-Sep-20 10:24 34.259661 -119.212514 295 29921ft 304kts
08-Sep-20 10:25 34.305366 -119.300169 295 29947ft 326kts
08-Sep-20 10:26 34.352259 -119.392142 293 29929ft 304kts
08-Sep-20 10:27 34.394361 -119.478858 293 29939ft 303kts
08-Sep-20 10:28 34.437780 -119.569194 293 29935ft 313kts
08-Sep-20 10:29 34.478288 -119.660303 290 29930ft 291kts
08-Sep-20 10:30 34.516089 -119.748904 290 29947ft 305kts
08-Sep-20 10:31 34.554142 -119.836754 292 29942ft 289kts
08-Sep-20 10:32 34.602835 -119.918638 302 29940ft 303kts
08-Sep-20 10:32 34.645039 -119.982058 300 29962ft 281kts
08-Sep-20 10:34 34.700020 -120.064970 298 29969ft 262kts
08-Sep-20 10:35 34.746064 -120.139862 298 29977ft 293kts
08-Sep-20 10:35 34.787821 -120.210090 298 29976ft 320kts
08-Sep-20 10:36 34.818980 -120.292823 238 29709ft 220kts
08-Sep-20 10:38 34.758016 -120.273308 155 26205ft 255kts
08-Sep-20 10:38 34.708324 -120.228710 152 23760ft 276kts
08-Sep-20 10:39 34.659857 -120.156983 87 20875ft 315kts
08-Sep-20 10:40 34.717722 -120.081577 32 18053ft 324kts
08-Sep-20 10:42 34.734929 -119.979542 150 14802ft 302kts
08-Sep-20 10:42 34.673674 -119.992535 212 12447ft 289kts
08-Sep-20 10:43 34.607468 -120.046638 217 9948ft 289kts
08-Sep-20 10:44 34.614168 -120.132389 302 7997ft 272kts
08-Sep-20 10:45 34.650629 -120.198881 302 7972ft 229kts
08-Sep-20 10:46 34.687154 -120.264955 302 7015ft 228kts
08-Sep-20 10:47 34.725065 -120.333223 302 5555ft 244kts
08-Sep-20 10:48 34.761759 -120.398417 303 4054ft 220kts
08-Sep-20 10:49 34.795239 -120.457501 303 3968ft 211kts
08-Sep-20 10:50 34.827978 -120.516947 303 3969ft 212kts
08-Sep-20 10:51 34.861405 -120.578260 303 3967ft 211kts
08-Sep-20 10:52 34.893992 -120.637999 303 3971ft 216kts
08-Sep-20 10:53 34.926384 -120.697419 302 3969ft 206kts
08-Sep-20 10:54 34.972562 -120.732353 352 3972ft 216kts
08-Sep-20 10:55 35.031938 -120.739774 352 3968ft 216kts
08-Sep-20 10:56 35.091136 -120.746690 352 2722ft 210kts
08-Sep-20 10:57 35.147537 -120.750931 18 1970ft 217kts
08-Sep-20 10:58 35.145203 -120.701575 152 1995ft 200kts
08-Sep-20 10:59 35.090990 -120.668788 159 1986ft 218kts
08-Sep-20 11:00 35.046805 -120.628266 136 1962ft 185kts
08-Sep-20 11:01 35.006732 -120.581821 140 1896ft 194kts
08-Sep-20 11:02 34.971029 -120.539894 134 1802ft 177kts
08-Sep-20 11:03 34.935156 -120.496711 135 1177ft 169kts
08-Sep-20 11:04 34.903836 -120.458980 135 266ft 123kts
08-Sep-20 11:05 34.898834 -120.451750 90 266ft 0kts
08-Sep-20 11:06 34.897742 -120.449105 101 266ft 16kts

Navigation Log

Ident Type
Flight plan parsing failed, navigation log unavailable